createdAt,value
2024-05-09T00:01:53.350Z,14.60
2024-05-09T00:04:24.347Z,14.60
2024-05-09T00:07:13.609Z,14.70
2024-05-09T00:09:45.758Z,14.70
2024-05-09T00:12:16.320Z,14.80
2024-05-09T00:14:46.746Z,14.80
2024-05-09T00:17:17.889Z,14.80
2024-05-09T00:19:49.365Z,14.90
2024-05-09T00:22:20.254Z,15.00
2024-05-09T00:24:51.581Z,15.10
2024-05-09T00:27:22.506Z,15.20
2024-05-09T00:29:52.956Z,15.20
2024-05-09T00:32:23.875Z,15.30
2024-05-09T00:34:54.920Z,15.30
2024-05-09T00:37:25.661Z,15.40
2024-05-09T00:39:56.096Z,15.40
2024-05-09T00:42:26.469Z,15.50
2024-05-09T00:44:56.899Z,15.50
2024-05-09T00:47:27.556Z,15.50
2024-05-09T00:49:58.130Z,15.40
2024-05-09T00:52:29.326Z,15.40
2024-05-09T00:55:00.025Z,15.40
2024-05-09T00:57:30.866Z,15.40
2024-05-09T01:00:03.629Z,15.50
2024-05-09T01:02:35.601Z,15.50
2024-05-09T01:05:06.924Z,15.50
2024-05-09T01:07:38.191Z,15.60
2024-05-09T01:10:17.001Z,15.60
2024-05-09T01:12:51.859Z,15.70
2024-05-09T01:15:23.234Z,15.80
2024-05-09T01:17:57.458Z,15.90
2024-05-09T01:20:37.541Z,15.90
2024-05-09T01:23:14.152Z,15.90
2024-05-09T01:25:49.875Z,16.00
2024-05-09T01:28:21.944Z,15.90
2024-05-09T01:30:52.365Z,15.90
2024-05-09T01:33:23.537Z,15.90
2024-05-09T01:35:54.062Z,15.90
2024-05-09T01:38:31.446Z,16.00
2024-05-09T01:41:02.423Z,16.00
2024-05-09T01:43:34.265Z,16.00
2024-05-09T01:46:05.278Z,16.10
2024-05-09T01:48:35.884Z,16.00
2024-05-09T01:51:06.672Z,15.90
2024-05-09T01:53:37.522Z,15.90
2024-05-09T01:56:08.841Z,15.90
2024-05-09T01:58:39.843Z,15.80
2024-05-09T02:01:10.247Z,15.80
2024-05-09T02:03:41.307Z,15.80
2024-05-09T02:06:11.773Z,15.80
2024-05-09T02:08:42.609Z,15.80
2024-05-09T02:11:13.124Z,15.80
2024-05-09T02:13:44.692Z,15.80
2024-05-09T02:16:15.767Z,15.80
2024-05-09T02:18:46.320Z,15.70
2024-05-09T02:21:16.860Z,15.60
2024-05-09T02:23:49.061Z,15.50
2024-05-09T02:26:19.660Z,15.40
2024-05-09T02:28:50.142Z,15.30
2024-05-09T02:31:21.206Z,15.30
2024-05-09T02:33:54.223Z,15.40
2024-05-09T02:36:24.777Z,15.50
2024-05-09T02:38:56.813Z,15.70
2024-05-09T02:41:29.172Z,15.90
2024-05-09T02:43:59.855Z,16.00
2024-05-09T02:46:30.717Z,16.20
2024-05-09T02:49:01.343Z,16.20
2024-05-09T02:51:31.791Z,16.20
2024-05-09T02:54:02.212Z,16.30
2024-05-09T02:56:32.717Z,16.20
2024-05-09T02:59:03.237Z,16.20
2024-05-09T03:01:33.843Z,16.10
2024-05-09T03:04:04.716Z,16.10
2024-05-09T03:06:35.850Z,16.00
2024-05-09T03:09:06.643Z,15.90
2024-05-09T03:11:37.346Z,15.90
2024-05-09T03:14:07.990Z,15.90
2024-05-09T03:16:44.487Z,16.00
2024-05-09T03:19:15.764Z,16.00
2024-05-09T03:21:46.761Z,16.10
2024-05-09T03:24:17.189Z,16.20
2024-05-09T03:26:47.632Z,16.30
2024-05-09T03:29:18.174Z,16.30
2024-05-09T03:31:48.708Z,16.40
2024-05-09T03:34:20.848Z,16.40
2024-05-09T03:36:51.307Z,16.50
2024-05-09T03:39:21.787Z,16.50
2024-05-09T03:41:52.212Z,16.50
2024-05-09T03:44:23.136Z,16.40
2024-05-09T03:46:53.679Z,16.30
2024-05-09T03:49:24.572Z,16.30
2024-05-09T03:51:55.496Z,16.30
2024-05-09T03:54:26.557Z,16.20
2024-05-09T03:56:56.944Z,16.20
2024-05-09T03:59:27.451Z,16.30
2024-05-09T04:01:58.019Z,16.30
2024-05-09T04:04:28.558Z,16.40
2024-05-09T04:06:58.957Z,16.50
2024-05-09T04:09:29.384Z,16.60
2024-05-09T04:11:59.926Z,16.60
2024-05-09T04:14:31.194Z,16.60
2024-05-09T04:17:01.899Z,16.60
2024-05-09T04:19:33.040Z,16.60
2024-05-09T04:22:03.930Z,16.60
2024-05-09T04:24:35.209Z,16.60
2024-05-09T04:27:06.393Z,16.60
2024-05-09T04:29:40.387Z,16.60
2024-05-09T04:32:11.786Z,16.50
2024-05-09T04:34:42.908Z,16.40
2024-05-09T04:37:14.043Z,16.40
2024-05-09T04:39:44.979Z,16.30
2024-05-09T04:42:16.217Z,16.30
2024-05-09T04:44:47.061Z,16.30
2024-05-09T04:47:18.578Z,16.30
2024-05-09T04:49:49.352Z,16.20
2024-05-09T04:52:20.054Z,16.20
2024-05-09T04:54:50.965Z,16.20
2024-05-09T04:57:21.931Z,16.20
2024-05-09T04:59:53.289Z,16.20
2024-05-09T05:02:24.842Z,16.20
2024-05-09T05:04:55.448Z,16.30
2024-05-09T05:07:28.046Z,16.30
2024-05-09T05:09:59.862Z,16.30
2024-05-09T05:12:49.311Z,16.40
2024-05-09T05:15:21.792Z,16.50
2024-05-09T05:17:52.799Z,16.50
2024-05-09T05:20:30.928Z,16.50
2024-05-09T05:23:04.567Z,16.50
2024-05-09T05:25:35.176Z,16.50
2024-05-09T05:28:06.317Z,16.40
2024-05-09T05:30:39.516Z,16.40
2024-05-09T05:33:20.598Z,16.40
2024-05-09T05:35:59.325Z,16.30
2024-05-09T05:38:32.693Z,16.30
2024-05-09T05:41:03.252Z,16.30
2024-05-09T05:43:33.695Z,16.30
2024-05-09T05:46:04.255Z,16.30
2024-05-09T05:48:34.852Z,16.30
2024-05-09T05:51:07.440Z,16.20
2024-05-09T05:53:37.878Z,16.20
2024-05-09T05:56:08.808Z,16.20
2024-05-09T05:58:40.319Z,16.10
2024-05-09T06:01:10.842Z,16.10
2024-05-09T06:03:41.886Z,16.00
2024-05-09T06:06:13.000Z,16.00
2024-05-09T06:08:43.568Z,16.00
2024-05-09T06:11:14.227Z,15.90
2024-05-09T06:13:47.770Z,15.80
2024-05-09T06:16:18.298Z,15.80
2024-05-09T06:18:48.920Z,15.80
2024-05-09T06:21:22.722Z,15.70
2024-05-09T06:23:55.482Z,15.70
2024-05-09T06:26:26.057Z,15.60
2024-05-09T06:28:56.567Z,15.50
2024-05-09T06:31:27.659Z,15.40
2024-05-09T06:33:58.379Z,15.40
2024-05-09T06:36:29.185Z,15.40
2024-05-09T06:38:59.640Z,15.30
2024-05-09T06:41:30.243Z,15.20
2024-05-09T06:44:01.408Z,15.20
2024-05-09T06:46:32.627Z,15.10
2024-05-09T06:49:09.701Z,15.10
2024-05-09T06:51:40.984Z,15.00
2024-05-09T06:54:11.863Z,14.90
2024-05-09T06:56:43.377Z,14.90
2024-05-09T06:59:14.684Z,14.80
2024-05-09T07:01:45.383Z,14.70
2024-05-09T07:04:16.555Z,14.60
2024-05-09T07:06:47.435Z,14.60
2024-05-09T07:09:18.491Z,14.60
2024-05-09T07:11:49.797Z,14.50
2024-05-09T07:14:20.262Z,14.50
2024-05-09T07:16:50.857Z,14.50
2024-05-09T07:19:22.166Z,14.40
2024-05-09T07:21:53.670Z,14.40
2024-05-09T07:24:24.111Z,14.30
2024-05-09T07:26:56.242Z,14.30
2024-05-09T07:29:27.173Z,14.20
2024-05-09T07:31:58.466Z,14.20
2024-05-09T07:34:28.996Z,14.20
2024-05-09T07:37:00.270Z,14.20
2024-05-09T07:39:31.028Z,14.20
2024-05-09T07:42:02.676Z,14.10
2024-05-09T07:44:33.254Z,14.10
2024-05-09T07:48:14.322Z,14.10
2024-05-09T07:51:32.905Z,14.10
2024-05-09T07:53:34.443Z,14.00
2024-05-09T07:55:35.923Z,14.00
2024-05-09T07:58:06.672Z,14.00
2024-05-09T08:00:37.227Z,14.00
2024-05-09T08:03:07.973Z,14.00
2024-05-09T08:05:39.991Z,14.00
2024-05-09T08:08:11.469Z,14.00
2024-05-09T08:10:41.991Z,14.00
2024-05-09T08:13:12.806Z,14.00
2024-05-09T08:15:43.584Z,13.90
2024-05-09T08:18:15.328Z,13.90
2024-05-09T08:20:46.448Z,13.90
2024-05-09T08:23:17.569Z,13.90
2024-05-09T08:25:48.883Z,13.80
2024-05-09T08:28:20.250Z,13.80
2024-05-09T08:30:50.918Z,13.80
2024-05-09T08:33:22.742Z,13.80
2024-05-09T08:35:53.343Z,13.80
2024-05-09T08:38:33.143Z,13.70
2024-05-09T08:41:07.135Z,13.70
2024-05-09T08:43:41.944Z,13.60
2024-05-09T08:46:15.127Z,13.50
2024-05-09T08:48:47.848Z,13.50
2024-05-09T08:51:18.684Z,13.50
2024-05-09T08:53:50.155Z,13.40
2024-05-09T08:56:22.766Z,13.40
2024-05-09T08:59:01.396Z,13.40
2024-05-09T09:01:38.156Z,13.40
2024-05-09T09:04:13.903Z,13.30
2024-05-09T09:06:46.593Z,13.30
2024-05-09T09:09:18.105Z,13.30
2024-05-09T09:11:48.597Z,13.30
2024-05-09T09:14:19.222Z,13.30
2024-05-09T09:16:49.879Z,13.30
2024-05-09T09:19:21.223Z,13.30
2024-05-09T09:21:51.961Z,13.30
2024-05-09T09:24:22.741Z,13.30
2024-05-09T09:26:53.984Z,13.20
2024-05-09T09:29:26.670Z,13.20
2024-05-09T09:32:06.125Z,13.10
2024-05-09T09:34:37.802Z,13.10
2024-05-09T09:37:12.848Z,13.10
2024-05-09T09:39:43.865Z,13.10
2024-05-09T09:42:19.232Z,13.10
2024-05-09T09:45:01.831Z,13.10
2024-05-09T09:47:41.503Z,13.10
2024-05-09T09:50:17.091Z,13.10
2024-05-09T09:52:54.756Z,13.00
2024-05-09T09:55:29.318Z,13.10
2024-05-09T09:57:59.910Z,13.00
2024-05-09T10:00:33.378Z,13.10
2024-05-09T10:03:04.682Z,13.10
2024-05-09T10:05:36.854Z,13.10
2024-05-09T10:08:10.203Z,13.20
2024-05-09T10:10:40.909Z,13.20
2024-05-09T10:13:11.440Z,13.20
2024-05-09T10:15:55.301Z,13.30
2024-05-09T10:18:29.326Z,13.30
2024-05-09T10:21:01.988Z,13.30
2024-05-09T10:23:38.017Z,13.30
2024-05-09T10:26:09.004Z,13.30
2024-05-09T10:28:46.110Z,13.30
2024-05-09T10:31:18.348Z,13.30
2024-05-09T10:33:53.789Z,13.30
2024-05-09T10:36:28.626Z,13.30
2024-05-09T10:38:59.081Z,13.30
2024-05-09T10:41:29.595Z,13.30
2024-05-09T10:44:00.612Z,13.30
2024-05-09T10:46:31.212Z,13.20
2024-05-09T10:49:05.331Z,13.20
2024-05-09T10:51:39.334Z,13.20
2024-05-09T10:54:10.153Z,13.10
2024-05-09T10:56:40.681Z,13.10
2024-05-09T10:59:11.489Z,13.10
2024-05-09T11:01:43.465Z,13.10
2024-05-09T11:04:14.528Z,13.10
2024-05-09T11:06:45.588Z,13.00
2024-05-09T11:09:16.501Z,13.00
2024-05-09T11:11:47.161Z,13.00
2024-05-09T11:14:18.940Z,12.90
2024-05-09T11:16:50.288Z,12.90
2024-05-09T11:19:21.295Z,12.90
2024-05-09T11:21:55.040Z,12.90
2024-05-09T11:24:26.051Z,12.90
2024-05-09T11:26:58.894Z,12.80
2024-05-09T11:29:43.220Z,12.80
2024-05-09T11:32:16.967Z,12.80
2024-05-09T11:34:47.719Z,12.80
2024-05-09T11:37:19.108Z,12.80
2024-05-09T11:39:49.603Z,12.80
2024-05-09T11:42:21.271Z,12.70
2024-05-09T11:44:54.746Z,12.70
2024-05-09T11:47:25.463Z,12.60
2024-05-09T11:49:59.849Z,12.60
2024-05-09T11:52:30.495Z,12.60
2024-05-09T11:55:01.184Z,12.60
2024-05-09T11:57:32.292Z,12.50
2024-05-09T12:00:04.252Z,12.50
2024-05-09T12:02:36.177Z,12.50
2024-05-09T12:05:06.886Z,12.50
2024-05-09T12:07:38.137Z,12.50
2024-05-09T12:10:16.458Z,12.40
2024-05-09T12:12:50.210Z,12.40
2024-05-09T12:15:20.653Z,12.40
2024-05-09T12:17:51.374Z,12.40
2024-05-09T12:20:28.852Z,12.40
2024-05-09T12:23:06.704Z,12.40
2024-05-09T12:25:38.350Z,12.40
2024-05-09T12:28:10.451Z,12.40
2024-05-09T12:30:41.595Z,12.40
2024-05-09T12:33:16.865Z,12.40
2024-05-09T12:35:50.143Z,12.40
2024-05-09T12:38:25.360Z,12.50
2024-05-09T12:40:56.064Z,12.50
2024-05-09T12:43:26.801Z,12.50
2024-05-09T12:45:57.255Z,12.50
2024-05-09T12:48:27.916Z,12.60
2024-05-09T12:50:59.294Z,12.60
2024-05-09T12:53:30.400Z,12.60
2024-05-09T12:56:02.995Z,12.60
2024-05-09T12:58:35.037Z,12.70
2024-05-09T13:01:05.494Z,12.70
2024-05-09T13:03:36.290Z,12.60
2024-05-09T13:06:07.597Z,12.70
2024-05-09T13:08:38.742Z,12.60
2024-05-09T13:11:09.176Z,12.70
2024-05-09T13:13:39.792Z,12.60
2024-05-09T13:16:10.396Z,12.70
2024-05-09T13:18:41.085Z,12.70
2024-05-09T13:21:12.016Z,12.70
2024-05-09T13:23:42.562Z,12.70
2024-05-09T13:26:12.980Z,12.70
2024-05-09T13:28:44.213Z,12.70
2024-05-09T13:31:14.633Z,12.70
2024-05-09T13:33:45.384Z,12.70
2024-05-09T13:36:16.011Z,12.70
2024-05-09T13:38:46.548Z,12.70
2024-05-09T13:41:17.387Z,12.80
2024-05-09T13:43:47.958Z,12.80
2024-05-09T13:46:19.445Z,12.80
2024-05-09T13:48:50.151Z,12.80
2024-05-09T13:51:20.583Z,12.70
2024-05-09T13:53:51.042Z,12.80
2024-05-09T13:56:21.562Z,12.80
2024-05-09T13:58:52.908Z,12.90
2024-05-09T14:01:23.328Z,12.90
2024-05-09T14:03:54.031Z,12.90
2024-05-09T14:06:25.220Z,12.90
2024-05-09T14:08:56.459Z,12.90
2024-05-09T14:11:27.367Z,12.90
2024-05-09T14:13:58.665Z,12.90
2024-05-09T14:16:29.403Z,12.90
2024-05-09T14:19:00.223Z,13.00
2024-05-09T14:21:30.728Z,13.00
2024-05-09T14:24:02.936Z,13.00
2024-05-09T14:26:33.392Z,13.00
2024-05-09T14:29:04.422Z,13.00
2024-05-09T14:31:36.933Z,13.00
2024-05-09T14:34:09.828Z,13.00
2024-05-09T14:36:40.391Z,13.00
2024-05-09T14:39:10.998Z,13.00
2024-05-09T14:41:42.463Z,13.00
2024-05-09T14:44:14.363Z,13.00
2024-05-09T14:46:44.999Z,13.00
2024-05-09T14:49:15.632Z,13.00
2024-05-09T14:51:50.708Z,13.00
2024-05-09T14:54:21.951Z,13.00
2024-05-09T14:57:01.135Z,13.00
2024-05-09T14:59:31.526Z,13.00
2024-05-09T15:02:02.179Z,13.00
2024-05-09T15:04:32.839Z,13.10
2024-05-09T15:07:03.603Z,13.00
2024-05-09T15:09:40.631Z,13.10
2024-05-09T15:12:11.449Z,13.00
2024-05-09T15:14:42.092Z,13.10
2024-05-09T15:17:13.081Z,13.10
2024-05-09T15:19:43.714Z,13.10
2024-05-09T15:22:18.091Z,13.10
2024-05-09T15:24:49.804Z,13.10
2024-05-09T15:27:20.820Z,13.10
2024-05-09T15:29:51.898Z,13.10
2024-05-09T15:32:22.445Z,13.10
2024-05-09T15:34:52.913Z,13.10
2024-05-09T15:37:24.046Z,13.10
2024-05-09T15:39:55.137Z,13.10
2024-05-09T15:42:28.941Z,13.10
2024-05-09T15:44:59.469Z,13.10
2024-05-09T15:47:30.391Z,13.10
2024-05-09T15:50:01.074Z,13.10
2024-05-09T15:52:31.978Z,13.10
2024-05-09T15:55:02.788Z,13.10
2024-05-09T15:57:33.404Z,13.10
2024-05-09T16:00:05.979Z,13.10
2024-05-09T16:02:38.202Z,13.10
2024-05-09T16:05:09.352Z,13.10
2024-05-09T16:07:40.825Z,13.10
2024-05-09T16:10:16.329Z,13.00
2024-05-09T16:12:50.473Z,13.00
2024-05-09T16:15:21.447Z,13.00
2024-05-09T16:17:51.977Z,13.10
2024-05-09T16:20:33.980Z,13.10
2024-05-09T16:23:10.647Z,13.00
2024-05-09T16:25:46.910Z,13.10
2024-05-09T16:28:17.399Z,13.10
2024-05-09T16:30:48.029Z,13.00
2024-05-09T16:33:22.736Z,13.10
2024-05-09T16:35:57.012Z,13.00
2024-05-09T16:38:36.222Z,13.00
2024-05-09T16:41:06.739Z,13.10
2024-05-09T16:43:37.770Z,13.10
2024-05-09T16:46:09.054Z,13.00
2024-05-09T16:48:42.344Z,13.00
2024-05-09T16:51:13.751Z,13.00
2024-05-09T16:53:44.284Z,13.10
2024-05-09T16:56:16.948Z,13.10
2024-05-09T16:58:47.622Z,13.10
2024-05-09T17:01:18.307Z,13.10
2024-05-09T17:03:49.075Z,13.10
2024-05-09T17:06:20.044Z,13.10
2024-05-09T17:08:50.536Z,13.10
2024-05-09T17:11:21.666Z,13.10
2024-05-09T17:13:52.510Z,13.10
2024-05-09T17:16:24.284Z,13.10
2024-05-09T17:18:54.791Z,13.10
2024-05-09T17:21:25.287Z,13.00
2024-05-09T17:23:57.375Z,13.00
2024-05-09T17:26:28.019Z,13.00
2024-05-09T17:28:58.490Z,13.00
2024-05-09T17:31:29.120Z,13.00
2024-05-09T17:34:00.359Z,13.00
2024-05-09T17:36:31.061Z,12.90
2024-05-09T17:39:01.520Z,12.90
2024-05-09T17:41:31.972Z,12.90
2024-05-09T17:44:02.777Z,12.90
2024-05-09T17:46:33.712Z,12.90
2024-05-09T17:49:04.315Z,12.90
2024-05-09T17:51:35.055Z,12.90
2024-05-09T17:54:06.070Z,12.90
2024-05-09T17:56:36.870Z,12.80
2024-05-09T17:59:09.936Z,12.90
2024-05-09T18:01:42.393Z,12.90
2024-05-09T18:04:13.227Z,12.80
2024-05-09T18:06:44.186Z,12.90
2024-05-09T18:09:14.581Z,12.90
2024-05-09T18:11:45.205Z,12.90
2024-05-09T18:14:15.559Z,12.90
2024-05-09T18:16:46.074Z,12.90
2024-05-09T18:19:16.701Z,12.90
2024-05-09T18:21:47.559Z,12.90
2024-05-09T18:24:18.459Z,13.00
2024-05-09T18:26:49.586Z,13.00
2024-05-09T18:29:22.271Z,13.00
2024-05-09T18:31:53.792Z,13.00
2024-05-09T18:34:24.324Z,13.00
2024-05-09T18:36:55.295Z,13.00
2024-05-09T18:39:26.334Z,13.00
2024-05-09T18:41:56.806Z,13.00
2024-05-09T18:44:27.188Z,12.90
2024-05-09T18:46:58.352Z,12.90
2024-05-09T18:49:29.572Z,12.90
2024-05-09T18:52:00.353Z,12.90
2024-05-09T18:54:30.828Z,12.90
2024-05-09T18:57:01.443Z,12.90
2024-05-09T18:59:31.799Z,12.90
2024-05-09T19:02:02.514Z,12.80
2024-05-09T19:04:33.149Z,12.80
2024-05-09T19:07:06.576Z,12.80
2024-05-09T19:09:37.111Z,12.70
2024-05-09T19:12:08.370Z,12.70
2024-05-09T19:14:38.761Z,12.70
2024-05-09T19:17:10.311Z,12.60
2024-05-09T19:19:40.734Z,12.70
2024-05-09T19:22:11.343Z,12.60
2024-05-09T19:24:41.748Z,12.60
2024-05-09T19:27:15.618Z,12.60
2024-05-09T19:29:45.998Z,12.60
2024-05-09T19:32:16.601Z,12.60
2024-05-09T19:34:47.033Z,12.60
2024-05-09T19:37:17.738Z,12.60
2024-05-09T19:39:48.728Z,12.60
2024-05-09T19:42:19.712Z,12.60
2024-05-09T19:44:50.512Z,12.60
2024-05-09T19:47:22.011Z,12.60
2024-05-09T19:49:52.641Z,12.60
2024-05-09T19:52:23.185Z,12.70
2024-05-09T19:54:53.559Z,12.70
2024-05-09T19:57:24.098Z,12.70
2024-05-09T19:59:54.461Z,12.70
2024-05-09T20:02:25.996Z,12.70
2024-05-09T20:04:57.257Z,12.70
2024-05-09T20:07:27.829Z,12.60
2024-05-09T20:09:58.748Z,12.60
2024-05-09T20:12:29.903Z,12.60
2024-05-09T20:15:00.577Z,12.50
2024-05-09T20:17:31.122Z,12.50
2024-05-09T20:20:07.403Z,12.50
2024-05-09T20:22:40.076Z,12.50
2024-05-09T20:25:12.197Z,12.50
2024-05-09T20:27:42.895Z,12.50
2024-05-09T20:30:20.880Z,12.60
2024-05-09T20:32:55.660Z,12.60
2024-05-09T20:35:26.081Z,12.60
2024-05-09T20:37:56.571Z,12.60
2024-05-09T20:40:32.515Z,12.60
2024-05-09T20:43:07.262Z,12.60
2024-05-09T20:45:38.244Z,12.60
2024-05-09T20:48:10.100Z,12.60
2024-05-09T20:50:42.435Z,12.60
2024-05-09T20:53:15.383Z,12.70
2024-05-09T20:55:46.503Z,12.70
2024-05-09T20:58:17.974Z,12.70
2024-05-09T21:00:48.625Z,12.70
2024-05-09T21:03:19.262Z,12.80
2024-05-09T21:05:49.866Z,12.80
2024-05-09T21:08:30.903Z,12.80
2024-05-09T21:11:01.715Z,12.80
2024-05-09T21:13:32.467Z,12.80
2024-05-09T21:16:03.065Z,12.80
2024-05-09T21:18:35.293Z,12.80
2024-05-09T21:21:06.655Z,12.80
2024-05-09T21:23:37.763Z,12.80
2024-05-09T21:26:09.948Z,12.80
2024-05-09T21:28:40.790Z,12.90
2024-05-09T21:31:11.634Z,12.90
2024-05-09T21:33:42.211Z,12.90
2024-05-09T21:36:12.718Z,12.90
2024-05-09T21:38:46.336Z,12.90
2024-05-09T21:41:16.726Z,12.90
2024-05-09T21:43:47.113Z,13.00
2024-05-09T21:46:17.804Z,13.00
2024-05-09T21:48:48.333Z,13.00
2024-05-09T21:51:18.911Z,13.10
2024-05-09T21:53:50.737Z,13.10
2024-05-09T21:56:21.117Z,13.10
2024-05-09T21:58:51.577Z,13.10
2024-05-09T22:01:22.115Z,13.10
2024-05-09T22:03:53.237Z,13.20
2024-05-09T22:09:07.851Z,13.20
2024-05-09T22:11:38.836Z,13.20
2024-05-09T22:14:09.814Z,13.20
2024-05-09T22:16:43.758Z,13.20
2024-05-09T22:19:14.344Z,13.20
2024-05-09T22:21:45.600Z,13.20
2024-05-09T22:24:16.021Z,13.30
2024-05-09T22:26:49.170Z,13.30
2024-05-09T22:29:19.616Z,13.30
2024-05-09T22:31:51.225Z,13.30
2024-05-09T22:34:21.792Z,13.40
2024-05-09T22:36:56.091Z,13.40
2024-05-09T22:39:26.627Z,13.40
2024-05-09T22:41:57.250Z,13.40
2024-05-09T22:44:27.785Z,13.50
2024-05-09T22:46:58.357Z,13.50
2024-05-09T22:49:29.509Z,13.50
2024-05-09T22:52:02.253Z,13.50
2024-05-09T22:54:33.099Z,13.60
2024-05-09T22:57:04.412Z,13.60
2024-05-09T22:59:35.071Z,13.70
2024-05-09T23:02:06.089Z,13.70
2024-05-09T23:04:36.699Z,13.70
2024-05-09T23:07:07.730Z,13.70
2024-05-09T23:09:38.351Z,13.70
2024-05-09T23:12:09.295Z,13.80
2024-05-09T23:14:39.744Z,13.90
2024-05-09T23:17:10.154Z,13.90
2024-05-09T23:19:40.622Z,13.90
2024-05-09T23:22:11.049Z,13.90
2024-05-09T23:24:42.229Z,13.90
2024-05-09T23:27:12.918Z,14.00
2024-05-09T23:29:43.317Z,14.00
2024-05-09T23:32:13.771Z,14.00
2024-05-09T23:34:44.309Z,14.00
2024-05-09T23:37:14.855Z,14.00
2024-05-09T23:39:45.812Z,14.00
2024-05-09T23:42:17.868Z,14.10
2024-05-09T23:44:48.383Z,14.10
2024-05-09T23:47:18.802Z,14.20
2024-05-09T23:49:49.720Z,14.20
2024-05-09T23:52:20.218Z,14.20
2024-05-09T23:54:50.741Z,14.30
2024-05-09T23:57:21.175Z,14.30
2024-05-09T23:59:52.380Z,14.30
